Forside
METAR-TAF:

METAR-TAF

Lufthavne :

Aarhus Lufthavn

Aarhus, Danmark

Breddekreds: 56-18N, længdekreds: 010-37E, højde: 23 m

Aktuelle vejr

Denne rapport blev lavet for 25 minutter siden, kl. 00:20 UTC
Vind 11 kt fra vestnordvest
Temperatur 6°C
Fugtighed 93%
Tryk 1028 hPa
Sigt 10 km eller mere

METAR: EKAH 230020Z AUTO 29011KT 9999 OVC004/// 06/05 Q1028

Tid: 01:45 (00:45 UTC)

Vejrudsigter

Denne rapport blev lavet for 1 time og 38 minutter siden, kl. 23:07 UTC
Foreløbig gælder fra 23 på 00 UTC til 23 på 24 UTC
Vind 8 kt fra vest
Sigt 10 km eller mere
Brudte skyer i en højde af 800 ft
Midlertidig
fra 23 på 00 UTC til 23 på 24 UTC
Sigt: 2500 m
Brudte skyer i en højde af 400 ft
dis

TAF: EKAH 222307Z 2300/2324 28008KT 9999 BKN008 TEMPO 2300/2324 2500 BR BKN004

Vejrobservationer og prognoser fra mere end 4000 lufthavne (METAR og TAF).

De gule og røde prikker repræsenterer de meteorologiske stationer.

Flyt musen over at se navnet på stationen.

Så klik over at se vejr observationer og prognoser.

At skifte det kort: Klik på de grønne knapper med et sort kors for at zoome ind; på den grønne knap med en bindestreg for at zoome ud; eller på de grønne pile for tilstødende kort.


METAR-TAF: